sensor_id;sensor_type;location;lat;lon;timestamp;P1;durP1;ratioP1;P2;durP2;ratioP2
66874;SDS011;53784;52.630;4.896;2022-07-29T00:00:09;0.10;;;0.10;;
66874;SDS011;53784;52.630;4.896;2022-07-29T00:02:35;0.10;;;0.10;;
66874;SDS011;53784;52.630;4.896;2022-07-29T00:05:01;0.10;;;0.10;;
66874;SDS011;53784;52.630;4.896;2022-07-29T00:07:27;0.10;;;0.10;;
66874;SDS011;53784;52.630;4.896;2022-07-29T00:09:52;0.10;;;0.10;;
66874;SDS011;53784;52.630;4.896;2022-07-29T00:12:18;0.20;;;0.20;;
66874;SDS011;53784;52.630;4.896;2022-07-29T00:14:44;0.20;;;0.10;;
66874;SDS011;53784;52.630;4.896;2022-07-29T00:17:10;0.10;;;0.10;;
66874;SDS011;53784;52.630;4.896;2022-07-29T00:19:35;0.10;;;0.10;;
66874;SDS011;53784;52.630;4.896;2022-07-29T00:22:00;1.00;;;0.57;;
66874;SDS011;53784;52.630;4.896;2022-07-29T00:24:26;0.10;;;0.10;;
66874;SDS011;53784;52.630;4.896;2022-07-29T00:26:51;0.10;;;0.10;;
66874;SDS011;53784;52.630;4.896;2022-07-29T00:29:17;0.10;;;0.10;;
66874;SDS011;53784;52.630;4.896;2022-07-29T00:31:42;0.10;;;0.10;;
66874;SDS011;53784;52.630;4.896;2022-07-29T00:34:07;0.10;;;0.10;;
66874;SDS011;53784;52.630;4.896;2022-07-29T00:36:53;0.10;;;0.10;;
66874;SDS011;53784;52.630;4.896;2022-07-29T00:39:18;0.10;;;0.10;;
66874;SDS011;53784;52.630;4.896;2022-07-29T00:41:43;0.10;;;0.10;;
66874;SDS011;53784;52.630;4.896;2022-07-29T00:44:09;0.10;;;0.10;;
66874;SDS011;53784;52.630;4.896;2022-07-29T00:46:34;0.10;;;0.10;;
66874;SDS011;53784;52.630;4.896;2022-07-29T00:48:59;0.10;;;0.10;;
66874;SDS011;53784;52.630;4.896;2022-07-29T00:51:25;0.05;;;0.05;;
66874;SDS011;53784;52.630;4.896;2022-07-29T00:53:51;0.10;;;0.10;;
66874;SDS011;53784;52.630;4.896;2022-07-29T00:56:17;0.10;;;0.10;;
66874;SDS011;53784;52.630;4.896;2022-07-29T00:58:42;0.25;;;0.20;;
66874;SDS011;53784;52.630;4.896;2022-07-29T01:01:08;0.10;;;0.10;;
66874;SDS011;53784;52.630;4.896;2022-07-29T01:03:33;0.17;;;0.10;;
66874;SDS011;53784;52.630;4.896;2022-07-29T01:05:58;0.10;;;0.10;;
66874;SDS011;53784;52.630;4.896;2022-07-29T01:08:24;0.10;;;0.10;;
66874;SDS011;53784;52.630;4.896;2022-07-29T01:10:49;0.10;;;0.10;;
66874;SDS011;53784;52.630;4.896;2022-07-29T01:13:15;0.10;;;0.10;;
66874;SDS011;53784;52.630;4.896;2022-07-29T01:15:43;0.10;;;0.10;;
66874;SDS011;53784;52.630;4.896;2022-07-29T01:26:21;0.10;;;0.10;;
66874;SDS011;53784;52.630;4.896;2022-07-29T01:29:05;0.10;;;0.10;;
66874;SDS011;53784;52.630;4.896;2022-07-29T01:31:34;0.10;;;0.10;;
66874;SDS011;53784;52.630;4.896;2022-07-29T01:34:05;0.10;;;0.10;;
66874;SDS011;53784;52.630;4.896;2022-07-29T01:36:33;0.10;;;0.10;;
66874;SDS011;53784;52.630;4.896;2022-07-29T01:41:37;0.10;;;0.10;;
66874;SDS011;53784;52.630;4.896;2022-07-29T01:44:12;0.10;;;0.10;;
66874;SDS011;53784;52.630;4.896;2022-07-29T01:46:41;0.10;;;0.10;;
66874;SDS011;53784;52.630;4.896;2022-07-29T01:49:14;0.00;;;0.00;;
66874;SDS011;53784;52.630;4.896;2022-07-29T01:54:15;0.10;;;0.10;;
66874;SDS011;53784;52.630;4.896;2022-07-29T01:56:44;0.10;;;0.10;;
66874;SDS011;53784;52.630;4.896;2022-07-29T01:59:10;0.15;;;0.13;;
66874;SDS011;53784;52.630;4.896;2022-07-29T02:01:37;0.10;;;0.10;;
66874;SDS011;53784;52.630;4.896;2022-07-29T02:04:04;0.10;;;0.10;;
66874;SDS011;53784;52.630;4.896;2022-07-29T02:06:32;0.10;;;0.10;;
66874;SDS011;53784;52.630;4.896;2022-07-29T02:08:58;0.10;;;0.10;;
66874;SDS011;53784;52.630;4.896;2022-07-29T02:11:24;0.10;;;0.10;;
66874;SDS011;53784;52.630;4.896;2022-07-29T02:13:49;0.10;;;0.10;;
66874;SDS011;53784;52.630;4.896;2022-07-29T02:16:15;0.10;;;0.10;;
66874;SDS011;53784;52.630;4.896;2022-07-29T02:18:41;0.10;;;0.10;;
66874;SDS011;53784;52.630;4.896;2022-07-29T02:21:08;0.45;;;0.30;;
66874;SDS011;53784;52.630;4.896;2022-07-29T02:23:34;0.10;;;0.10;;
66874;SDS011;53784;52.630;4.896;2022-07-29T02:26:00;0.10;;;0.10;;
66874;SDS011;53784;52.630;4.896;2022-07-29T02:28:27;0.10;;;0.10;;
66874;SDS011;53784;52.630;4.896;2022-07-29T02:30:55;0.10;;;0.10;;
66874;SDS011;53784;52.630;4.896;2022-07-29T02:33:22;0.10;;;0.10;;
66874;SDS011;53784;52.630;4.896;2022-07-29T02:35:48;0.10;;;0.10;;
66874;SDS011;53784;52.630;4.896;2022-07-29T02:38:15;0.10;;;0.10;;
66874;SDS011;53784;52.630;4.896;2022-07-29T02:41:08;0.10;;;0.10;;
66874;SDS011;53784;52.630;4.896;2022-07-29T02:43:36;0.10;;;0.10;;
66874;SDS011;53784;52.630;4.896;2022-07-29T02:46:02;0.10;;;0.10;;
66874;SDS011;53784;52.630;4.896;2022-07-29T02:48:37;0.10;;;0.10;;
66874;SDS011;53784;52.630;4.896;2022-07-29T02:51:08;0.10;;;0.10;;
66874;SDS011;53784;52.630;4.896;2022-07-29T02:53:37;0.10;;;0.10;;
66874;SDS011;53784;52.630;4.896;2022-07-29T02:56:07;0.10;;;0.10;;
66874;SDS011;53784;52.630;4.896;2022-07-29T02:58:40;0.10;;;0.10;;
66874;SDS011;53784;52.630;4.896;2022-07-29T03:01:08;0.10;;;0.10;;
66874;SDS011;53784;52.630;4.896;2022-07-29T03:03:45;0.15;;;0.15;;
66874;SDS011;53784;52.630;4.896;2022-07-29T03:06:12;0.10;;;0.10;;
66874;SDS011;53784;52.630;4.896;2022-07-29T03:08:38;0.10;;;0.10;;
66874;SDS011;53784;52.630;4.896;2022-07-29T03:11:04;0.10;;;0.10;;
66874;SDS011;53784;52.630;4.896;2022-07-29T03:13:30;0.00;;;0.00;;
66874;SDS011;53784;52.630;4.896;2022-07-29T03:15:55;0.10;;;0.10;;
66874;SDS011;53784;52.630;4.896;2022-07-29T03:18:22;0.13;;;0.13;;
66874;SDS011;53784;52.630;4.896;2022-07-29T03:20:48;0.10;;;0.10;;
66874;SDS011;53784;52.630;4.896;2022-07-29T03:23:18;0.10;;;0.10;;
66874;SDS011;53784;52.630;4.896;2022-07-29T03:25:52;0.30;;;0.20;;
66874;SDS011;53784;52.630;4.896;2022-07-29T03:28:18;0.10;;;0.10;;
66874;SDS011;53784;52.630;4.896;2022-07-29T03:30:44;0.10;;;0.10;;
66874;SDS011;53784;52.630;4.896;2022-07-29T03:33:10;0.10;;;0.10;;
66874;SDS011;53784;52.630;4.896;2022-07-29T03:35:35;0.10;;;0.10;;
66874;SDS011;53784;52.630;4.896;2022-07-29T03:38:00;0.10;;;0.10;;
66874;SDS011;53784;52.630;4.896;2022-07-29T03:40:27;0.10;;;0.10;;
66874;SDS011;53784;52.630;4.896;2022-07-29T03:42:59;0.10;;;0.10;;
66874;SDS011;53784;52.630;4.896;2022-07-29T03:45:25;0.10;;;0.10;;
66874;SDS011;53784;52.630;4.896;2022-07-29T03:47:53;0.10;;;0.10;;
66874;SDS011;53784;52.630;4.896;2022-07-29T03:50:22;0.10;;;0.10;;
66874;SDS011;53784;52.630;4.896;2022-07-29T03:52:47;0.20;;;0.20;;
66874;SDS011;53784;52.630;4.896;2022-07-29T03:55:13;0.00;;;0.00;;
66874;SDS011;53784;52.630;4.896;2022-07-29T03:57:39;0.10;;;0.10;;
66874;SDS011;53784;52.630;4.896;2022-07-29T04:00:05;0.10;;;0.10;;
66874;SDS011;53784;52.630;4.896;2022-07-29T04:02:31;0.10;;;0.10;;
66874;SDS011;53784;52.630;4.896;2022-07-29T04:04:57;0.10;;;0.10;;
66874;SDS011;53784;52.630;4.896;2022-07-29T04:07:22;0.00;;;0.00;;
66874;SDS011;53784;52.630;4.896;2022-07-29T04:09:47;0.10;;;0.10;;
66874;SDS011;53784;52.630;4.896;2022-07-29T04:12:13;0.10;;;0.10;;
66874;SDS011;53784;52.630;4.896;2022-07-29T04:14:38;0.10;;;0.10;;
66874;SDS011;53784;52.630;4.896;2022-07-29T04:17:04;0.10;;;0.10;;
66874;SDS011;53784;52.630;4.896;2022-07-29T04:19:29;0.10;;;0.10;;
66874;SDS011;53784;52.630;4.896;2022-07-29T04:21:55;0.10;;;0.10;;
66874;SDS011;53784;52.630;4.896;2022-07-29T04:24:21;0.10;;;0.10;;
66874;SDS011;53784;52.630;4.896;2022-07-29T04:26:46;0.10;;;0.10;;
66874;SDS011;53784;52.630;4.896;2022-07-29T04:29:12;0.10;;;0.10;;
66874;SDS011;53784;52.630;4.896;2022-07-29T04:31:39;0.10;;;0.10;;
66874;SDS011;53784;52.630;4.896;2022-07-29T04:34:04;0.10;;;0.10;;
66874;SDS011;53784;52.630;4.896;2022-07-29T04:36:29;0.20;;;0.20;;
66874;SDS011;53784;52.630;4.896;2022-07-29T04:38:55;0.10;;;0.10;;
66874;SDS011;53784;52.630;4.896;2022-07-29T04:41:20;0.10;;;0.10;;
66874;SDS011;53784;52.630;4.896;2022-07-29T04:43:46;0.10;;;0.10;;
66874;SDS011;53784;52.630;4.896;2022-07-29T04:46:11;0.10;;;0.10;;
66874;SDS011;53784;52.630;4.896;2022-07-29T04:48:36;0.10;;;0.10;;
66874;SDS011;53784;52.630;4.896;2022-07-29T04:51:02;0.10;;;0.10;;
66874;SDS011;53784;52.630;4.896;2022-07-29T04:53:27;0.10;;;0.10;;
66874;SDS011;53784;52.630;4.896;2022-07-29T04:55:52;0.10;;;0.10;;
66874;SDS011;53784;52.630;4.896;2022-07-29T04:58:17;0.10;;;0.10;;
66874;SDS011;53784;52.630;4.896;2022-07-29T05:00:43;0.10;;;0.10;;
66874;SDS011;53784;52.630;4.896;2022-07-29T05:03:08;0.10;;;0.10;;
66874;SDS011;53784;52.630;4.896;2022-07-29T05:05:33;0.10;;;0.10;;
66874;SDS011;53784;52.630;4.896;2022-07-29T05:07:59;0.10;;;0.10;;
66874;SDS011;53784;52.630;4.896;2022-07-29T05:10:24;0.10;;;0.10;;
66874;SDS011;53784;52.630;4.896;2022-07-29T05:12:50;0.10;;;0.10;;
66874;SDS011;53784;52.630;4.896;2022-07-29T05:15:15;0.10;;;0.10;;
66874;SDS011;53784;52.630;4.896;2022-07-29T05:17:42;0.10;;;0.10;;
66874;SDS011;53784;52.630;4.896;2022-07-29T05:20:07;0.10;;;0.10;;
66874;SDS011;53784;52.630;4.896;2022-07-29T05:22:33;0.10;;;0.10;;
66874;SDS011;53784;52.630;4.896;2022-07-29T05:24:58;0.10;;;0.10;;
66874;SDS011;53784;52.630;4.896;2022-07-29T05:27:24;0.10;;;0.10;;
66874;SDS011;53784;52.630;4.896;2022-07-29T05:29:49;0.10;;;0.10;;
66874;SDS011;53784;52.630;4.896;2022-07-29T05:32:14;0.10;;;0.10;;
66874;SDS011;53784;52.630;4.896;2022-07-29T05:34:40;0.10;;;0.10;;
66874;SDS011;53784;52.630;4.896;2022-07-29T05:37:06;0.10;;;0.10;;
66874;SDS011;53784;52.630;4.896;2022-07-29T05:39:32;0.10;;;0.10;;
66874;SDS011;53784;52.630;4.896;2022-07-29T05:41:58;0.10;;;0.10;;
66874;SDS011;53784;52.630;4.896;2022-07-29T05:44:23;0.10;;;0.10;;
66874;SDS011;53784;52.630;4.896;2022-07-29T05:46:48;0.10;;;0.10;;
66874;SDS011;53784;52.630;4.896;2022-07-29T05:49:14;0.10;;;0.10;;
66874;SDS011;53784;52.630;4.896;2022-07-29T05:51:39;0.10;;;0.10;;
66874;SDS011;53784;52.630;4.896;2022-07-29T05:54:05;0.10;;;0.10;;
66874;SDS011;53784;52.630;4.896;2022-07-29T05:56:30;0.10;;;0.10;;
66874;SDS011;53784;52.630;4.896;2022-07-29T05:58:55;0.10;;;0.10;;
66874;SDS011;53784;52.630;4.896;2022-07-29T06:01:21;0.10;;;0.10;;
66874;SDS011;53784;52.630;4.896;2022-07-29T06:03:46;0.25;;;0.25;;
66874;SDS011;53784;52.630;4.896;2022-07-29T06:06:11;0.10;;;0.10;;
66874;SDS011;53784;52.630;4.896;2022-07-29T06:08:37;0.10;;;0.10;;
66874;SDS011;53784;52.630;4.896;2022-07-29T06:11:03;0.10;;;0.10;;
66874;SDS011;53784;52.630;4.896;2022-07-29T06:13:29;0.10;;;0.10;;
66874;SDS011;53784;52.630;4.896;2022-07-29T06:15:55;0.10;;;0.10;;
66874;SDS011;53784;52.630;4.896;2022-07-29T06:18:21;0.10;;;0.10;;
66874;SDS011;53784;52.630;4.896;2022-07-29T06:20:48;0.10;;;0.10;;
66874;SDS011;53784;52.630;4.896;2022-07-29T06:23:17;0.10;;;0.10;;
66874;SDS011;53784;52.630;4.896;2022-07-29T06:25:44;0.10;;;0.10;;
66874;SDS011;53784;52.630;4.896;2022-07-29T06:28:09;0.10;;;0.10;;
66874;SDS011;53784;52.630;4.896;2022-07-29T06:30:34;0.10;;;0.10;;
66874;SDS011;53784;52.630;4.896;2022-07-29T06:33:00;0.10;;;0.10;;
66874;SDS011;53784;52.630;4.896;2022-07-29T06:35:26;0.10;;;0.10;;
66874;SDS011;53784;52.630;4.896;2022-07-29T06:37:52;0.10;;;0.10;;
66874;SDS011;53784;52.630;4.896;2022-07-29T06:40:17;0.17;;;0.17;;
66874;SDS011;53784;52.630;4.896;2022-07-29T06:43:01;0.10;;;0.10;;
66874;SDS011;53784;52.630;4.896;2022-07-29T06:45:26;0.20;;;0.20;;
66874;SDS011;53784;52.630;4.896;2022-07-29T06:47:51;0.30;;;0.20;;
66874;SDS011;53784;52.630;4.896;2022-07-29T06:50:17;0.10;;;0.10;;
66874;SDS011;53784;52.630;4.896;2022-07-29T06:52:42;0.20;;;0.20;;
66874;SDS011;53784;52.630;4.896;2022-07-29T06:55:08;0.10;;;0.10;;
66874;SDS011;53784;52.630;4.896;2022-07-29T06:57:33;0.10;;;0.10;;
66874;SDS011;53784;52.630;4.896;2022-07-29T06:59:59;0.10;;;0.10;;
66874;SDS011;53784;52.630;4.896;2022-07-29T07:02:24;0.10;;;0.10;;
66874;SDS011;53784;52.630;4.896;2022-07-29T07:04:49;0.10;;;0.10;;
66874;SDS011;53784;52.630;4.896;2022-07-29T07:07:15;0.10;;;0.10;;
66874;SDS011;53784;52.630;4.896;2022-07-29T07:09:40;0.10;;;0.10;;
66874;SDS011;53784;52.630;4.896;2022-07-29T07:12:06;0.10;;;0.10;;
66874;SDS011;53784;52.630;4.896;2022-07-29T07:14:31;0.10;;;0.10;;
66874;SDS011;53784;52.630;4.896;2022-07-29T07:16:56;0.10;;;0.10;;
66874;SDS011;53784;52.630;4.896;2022-07-29T07:19:22;0.10;;;0.10;;
66874;SDS011;53784;52.630;4.896;2022-07-29T07:21:47;0.15;;;0.15;;
66874;SDS011;53784;52.630;4.896;2022-07-29T07:24:12;0.20;;;0.20;;
66874;SDS011;53784;52.630;4.896;2022-07-29T07:26:38;0.20;;;0.20;;
66874;SDS011;53784;52.630;4.896;2022-07-29T07:29:04;0.22;;;0.20;;
66874;SDS011;53784;52.630;4.896;2022-07-29T07:31:30;0.20;;;0.20;;
66874;SDS011;53784;52.630;4.896;2022-07-29T07:33:55;0.20;;;0.20;;
66874;SDS011;53784;52.630;4.896;2022-07-29T07:36:21;0.20;;;0.20;;
66874;SDS011;53784;52.630;4.896;2022-07-29T07:38:47;0.25;;;0.25;;
66874;SDS011;53784;52.630;4.896;2022-07-29T07:41:13;0.30;;;0.30;;
66874;SDS011;53784;52.630;4.896;2022-07-29T07:43:38;0.50;;;0.30;;
66874;SDS011;53784;52.630;4.896;2022-07-29T07:46:03;0.30;;;0.30;;
66874;SDS011;53784;52.630;4.896;2022-07-29T07:48:29;0.30;;;0.30;;
66874;SDS011;53784;52.630;4.896;2022-07-29T07:50:54;0.40;;;0.40;;
66874;SDS011;53784;52.630;4.896;2022-07-29T07:53:19;0.30;;;0.30;;
66874;SDS011;53784;52.630;4.896;2022-07-29T07:55:45;0.30;;;0.30;;
66874;SDS011;53784;52.630;4.896;2022-07-29T07:58:10;0.30;;;0.30;;
66874;SDS011;53784;52.630;4.896;2022-07-29T08:00:35;0.40;;;0.40;;
66874;SDS011;53784;52.630;4.896;2022-07-29T08:03:01;0.30;;;0.30;;
66874;SDS011;53784;52.630;4.896;2022-07-29T08:05:27;0.30;;;0.30;;
66874;SDS011;53784;52.630;4.896;2022-07-29T08:07:52;0.50;;;0.50;;
66874;SDS011;53784;52.630;4.896;2022-07-29T08:10:18;0.30;;;0.30;;
66874;SDS011;53784;52.630;4.896;2022-07-29T08:13:06;0.40;;;0.40;;
66874;SDS011;53784;52.630;4.896;2022-07-29T08:17:57;0.43;;;0.40;;
66874;SDS011;53784;52.630;4.896;2022-07-29T08:20:23;0.52;;;0.40;;
66874;SDS011;53784;52.630;4.896;2022-07-29T08:22:48;0.60;;;0.50;;
66874;SDS011;53784;52.630;4.896;2022-07-29T08:25:14;0.70;;;0.50;;
66874;SDS011;53784;52.630;4.896;2022-07-29T08:27:39;0.80;;;0.50;;
66874;SDS011;53784;52.630;4.896;2022-07-29T08:30:04;1.10;;;0.80;;
66874;SDS011;53784;52.630;4.896;2022-07-29T08:32:30;1.15;;;0.50;;
66874;SDS011;53784;52.630;4.896;2022-07-29T08:34:56;0.73;;;0.50;;
66874;SDS011;53784;52.630;4.896;2022-07-29T08:37:21;0.50;;;0.40;;
66874;SDS011;53784;52.630;4.896;2022-07-29T08:39:47;0.50;;;0.40;;
66874;SDS011;53784;52.630;4.896;2022-07-29T08:42:12;0.50;;;0.40;;
66874;SDS011;53784;52.630;4.896;2022-07-29T08:44:38;0.70;;;0.50;;
66874;SDS011;53784;52.630;4.896;2022-07-29T08:47:03;0.70;;;0.50;;
66874;SDS011;53784;52.630;4.896;2022-07-29T08:49:29;1.00;;;0.60;;
66874;SDS011;53784;52.630;4.896;2022-07-29T08:51:54;1.10;;;0.60;;
66874;SDS011;53784;52.630;4.896;2022-07-29T08:54:20;1.10;;;0.60;;
66874;SDS011;53784;52.630;4.896;2022-07-29T08:56:50;1.30;;;0.70;;
66874;SDS011;53784;52.630;4.896;2022-07-29T08:59:16;1.30;;;0.70;;
66874;SDS011;53784;52.630;4.896;2022-07-29T09:01:44;1.38;;;0.77;;
66874;SDS011;53784;52.630;4.896;2022-07-29T09:04:12;1.40;;;0.70;;
66874;SDS011;53784;52.630;4.896;2022-07-29T09:06:48;1.20;;;0.60;;
66874;SDS011;53784;52.630;4.896;2022-07-29T09:09:14;0.90;;;0.60;;
66874;SDS011;53784;52.630;4.896;2022-07-29T09:11:40;0.68;;;0.50;;
66874;SDS011;53784;52.630;4.896;2022-07-29T09:14:06;0.60;;;0.50;;
66874;SDS011;53784;52.630;4.896;2022-07-29T09:16:47;1.25;;;0.88;;
66874;SDS011;53784;52.630;4.896;2022-07-29T09:19:22;0.40;;;0.40;;
66874;SDS011;53784;52.630;4.896;2022-07-29T09:22:06;0.70;;;0.50;;
66874;SDS011;53784;52.630;4.896;2022-07-29T09:24:44;1.10;;;0.60;;
66874;SDS011;53784;52.630;4.896;2022-07-29T09:27:21;1.20;;;0.70;;
66874;SDS011;53784;52.630;4.896;2022-07-29T09:30:01;1.50;;;0.80;;
66874;SDS011;53784;52.630;4.896;2022-07-29T09:32:29;1.42;;;0.73;;
66874;SDS011;53784;52.630;4.896;2022-07-29T09:37:55;1.10;;;0.60;;
66874;SDS011;53784;52.630;4.896;2022-07-29T09:40:22;1.00;;;0.60;;
66874;SDS011;53784;52.630;4.896;2022-07-29T09:42:49;1.00;;;0.60;;
66874;SDS011;53784;52.630;4.896;2022-07-29T09:45:26;1.00;;;0.60;;
66874;SDS011;53784;52.630;4.896;2022-07-29T09:47:58;1.00;;;0.60;;
66874;SDS011;53784;52.630;4.896;2022-07-29T09:50:40;0.90;;;0.50;;
66874;SDS011;53784;52.630;4.896;2022-07-29T09:53:06;0.82;;;0.50;;
66874;SDS011;53784;52.630;4.896;2022-07-29T09:55:45;1.00;;;0.60;;
66874;SDS011;53784;52.630;4.896;2022-07-29T09:58:14;1.42;;;0.82;;
66874;SDS011;53784;52.630;4.896;2022-07-29T10:00:42;1.42;;;0.70;;
66874;SDS011;53784;52.630;4.896;2022-07-29T10:03:09;1.60;;;0.80;;
66874;SDS011;53784;52.630;4.896;2022-07-29T10:05:35;1.57;;;0.90;;
66874;SDS011;53784;52.630;4.896;2022-07-29T10:08:00;1.70;;;1.00;;
66874;SDS011;53784;52.630;4.896;2022-07-29T10:10:27;1.80;;;1.10;;
66874;SDS011;53784;52.630;4.896;2022-07-29T10:15:24;1.80;;;1.30;;
66874;SDS011;53784;52.630;4.896;2022-07-29T10:17:51;1.83;;;1.33;;
66874;SDS011;53784;52.630;4.896;2022-07-29T10:20:18;2.00;;;1.60;;
66874;SDS011;53784;52.630;4.896;2022-07-29T10:22:43;1.85;;;1.40;;
66874;SDS011;53784;52.630;4.896;2022-07-29T10:25:09;1.90;;;1.40;;
66874;SDS011;53784;52.630;4.896;2022-07-29T10:27:35;2.00;;;1.60;;
66874;SDS011;53784;52.630;4.896;2022-07-29T10:30:02;2.10;;;1.70;;
66874;SDS011;53784;52.630;4.896;2022-07-29T10:40:33;2.00;;;1.60;;
66874;SDS011;53784;52.630;4.896;2022-07-29T10:43:24;1.90;;;1.50;;
66874;SDS011;53784;52.630;4.896;2022-07-29T10:45:54;1.90;;;1.50;;
66874;SDS011;53784;52.630;4.896;2022-07-29T10:48:22;2.00;;;1.65;;
66874;SDS011;53784;52.630;4.896;2022-07-29T10:51:03;2.53;;;2.00;;
66874;SDS011;53784;52.630;4.896;2022-07-29T10:53:48;2.10;;;1.83;;
66874;SDS011;53784;52.630;4.896;2022-07-29T10:56:27;2.08;;;1.70;;
66874;SDS011;53784;52.630;4.896;2022-07-29T11:01:48;1.80;;;1.25;;
66874;SDS011;53784;52.630;4.896;2022-07-29T11:04:14;1.70;;;1.10;;
66874;SDS011;53784;52.630;4.896;2022-07-29T11:09:23;1.50;;;0.88;;
66874;SDS011;53784;52.630;4.896;2022-07-29T11:11:48;2.27;;;1.27;;
66874;SDS011;53784;52.630;4.896;2022-07-29T11:14:14;1.70;;;1.03;;
66874;SDS011;53784;52.630;4.896;2022-07-29T11:19:33;1.90;;;1.45;;
66874;SDS011;53784;52.630;4.896;2022-07-29T11:21:58;1.80;;;1.30;;
66874;SDS011;53784;52.630;4.896;2022-07-29T11:24:25;1.80;;;1.00;;
66874;SDS011;53784;52.630;4.896;2022-07-29T11:27:15;1.30;;;0.70;;
66874;SDS011;53784;52.630;4.896;2022-07-29T11:32:21;1.08;;;0.60;;
66874;SDS011;53784;52.630;4.896;2022-07-29T11:34:47;1.60;;;0.80;;
66874;SDS011;53784;52.630;4.896;2022-07-29T11:37:16;1.70;;;1.00;;
66874;SDS011;53784;52.630;4.896;2022-07-29T11:47:24;1.90;;;1.40;;
66874;SDS011;53784;52.630;4.896;2022-07-29T11:49:50;1.80;;;1.30;;
66874;SDS011;53784;52.630;4.896;2022-07-29T11:52:17;1.60;;;1.00;;
66874;SDS011;53784;52.630;4.896;2022-07-29T11:54:42;1.70;;;0.90;;
66874;SDS011;53784;52.630;4.896;2022-07-29T11:57:08;1.50;;;0.80;;
66874;SDS011;53784;52.630;4.896;2022-07-29T11:59:40;1.20;;;0.70;;
66874;SDS011;53784;52.630;4.896;2022-07-29T12:02:09;1.30;;;0.70;;
66874;SDS011;53784;52.630;4.896;2022-07-29T12:04:48;1.45;;;0.70;;
66874;SDS011;53784;52.630;4.896;2022-07-29T12:07:16;1.60;;;0.88;;
66874;SDS011;53784;52.630;4.896;2022-07-29T12:09:52;1.50;;;0.80;;
66874;SDS011;53784;52.630;4.896;2022-07-29T12:12:18;1.50;;;0.80;;
66874;SDS011;53784;52.630;4.896;2022-07-29T12:14:43;1.60;;;0.80;;
66874;SDS011;53784;52.630;4.896;2022-07-29T12:19:59;1.67;;;0.90;;
66874;SDS011;53784;52.630;4.896;2022-07-29T12:22:31;1.70;;;1.00;;
66874;SDS011;53784;52.630;4.896;2022-07-29T12:25:02;1.70;;;1.00;;
66874;SDS011;53784;52.630;4.896;2022-07-29T12:27:29;1.60;;;0.90;;
66874;SDS011;53784;52.630;4.896;2022-07-29T12:29:58;1.60;;;0.90;;
66874;SDS011;53784;52.630;4.896;2022-07-29T12:32:39;1.52;;;0.80;;
66874;SDS011;53784;52.630;4.896;2022-07-29T12:35:06;1.50;;;0.80;;
66874;SDS011;53784;52.630;4.896;2022-07-29T12:37:34;1.50;;;0.80;;
66874;SDS011;53784;52.630;4.896;2022-07-29T12:40:01;1.50;;;0.80;;
66874;SDS011;53784;52.630;4.896;2022-07-29T12:42:28;1.60;;;0.90;;
66874;SDS011;53784;52.630;4.896;2022-07-29T12:44:53;1.60;;;0.80;;
66874;SDS011;53784;52.630;4.896;2022-07-29T12:47:19;1.60;;;0.80;;
66874;SDS011;53784;52.630;4.896;2022-07-29T12:49:45;1.50;;;0.73;;
66874;SDS011;53784;52.630;4.896;2022-07-29T12:52:31;1.20;;;0.70;;
66874;SDS011;53784;52.630;4.896;2022-07-29T12:54:57;1.00;;;0.60;;
66874;SDS011;53784;52.630;4.896;2022-07-29T12:57:23;0.90;;;0.50;;
66874;SDS011;53784;52.630;4.896;2022-07-29T13:02:56;0.50;;;0.40;;
66874;SDS011;53784;52.630;4.896;2022-07-29T13:05:22;0.40;;;0.40;;
66874;SDS011;53784;52.630;4.896;2022-07-29T13:07:48;0.30;;;0.30;;
66874;SDS011;53784;52.630;4.896;2022-07-29T13:10:16;0.40;;;0.40;;
66874;SDS011;53784;52.630;4.896;2022-07-29T13:13:01;0.30;;;0.30;;
66874;SDS011;53784;52.630;4.896;2022-07-29T13:15:36;0.40;;;0.40;;
66874;SDS011;53784;52.630;4.896;2022-07-29T13:18:03;0.20;;;0.20;;
66874;SDS011;53784;52.630;4.896;2022-07-29T13:20:29;0.20;;;0.20;;
66874;SDS011;53784;52.630;4.896;2022-07-29T13:22:55;0.20;;;0.20;;
66874;SDS011;53784;52.630;4.896;2022-07-29T13:25:25;0.15;;;0.15;;
66874;SDS011;53784;52.630;4.896;2022-07-29T13:27:53;0.10;;;0.10;;
66874;SDS011;53784;52.630;4.896;2022-07-29T13:30:19;0.22;;;0.22;;
66874;SDS011;53784;52.630;4.896;2022-07-29T13:32:45;0.20;;;0.20;;
66874;SDS011;53784;52.630;4.896;2022-07-29T13:35:11;0.20;;;0.20;;
66874;SDS011;53784;52.630;4.896;2022-07-29T13:37:36;0.22;;;0.22;;
66874;SDS011;53784;52.630;4.896;2022-07-29T13:40:05;0.10;;;0.10;;
66874;SDS011;53784;52.630;4.896;2022-07-29T13:42:32;0.15;;;0.15;;
66874;SDS011;53784;52.630;4.896;2022-07-29T13:44:58;0.10;;;0.10;;
66874;SDS011;53784;52.630;4.896;2022-07-29T13:47:24;0.17;;;0.17;;
66874;SDS011;53784;52.630;4.896;2022-07-29T13:49:49;0.20;;;0.20;;
66874;SDS011;53784;52.630;4.896;2022-07-29T13:52:15;0.10;;;0.10;;
66874;SDS011;53784;52.630;4.896;2022-07-29T13:54:40;0.13;;;0.13;;
66874;SDS011;53784;52.630;4.896;2022-07-29T13:57:06;0.10;;;0.10;;
66874;SDS011;53784;52.630;4.896;2022-07-29T13:59:31;0.20;;;0.20;;
66874;SDS011;53784;52.630;4.896;2022-07-29T14:01:57;0.20;;;0.20;;
66874;SDS011;53784;52.630;4.896;2022-07-29T14:04:22;0.20;;;0.20;;
66874;SDS011;53784;52.630;4.896;2022-07-29T14:06:48;0.10;;;0.10;;
66874;SDS011;53784;52.630;4.896;2022-07-29T14:09:14;0.15;;;0.15;;
66874;SDS011;53784;52.630;4.896;2022-07-29T14:11:39;0.20;;;0.20;;
66874;SDS011;53784;52.630;4.896;2022-07-29T14:14:05;0.10;;;0.10;;
66874;SDS011;53784;52.630;4.896;2022-07-29T14:16:30;0.30;;;0.30;;
66874;SDS011;53784;52.630;4.896;2022-07-29T14:18:55;0.10;;;0.10;;
66874;SDS011;53784;52.630;4.896;2022-07-29T14:21:21;0.20;;;0.20;;
66874;SDS011;53784;52.630;4.896;2022-07-29T14:23:46;0.10;;;0.10;;
66874;SDS011;53784;52.630;4.896;2022-07-29T14:26:12;0.20;;;0.20;;
66874;SDS011;53784;52.630;4.896;2022-07-29T14:28:37;0.20;;;0.20;;
66874;SDS011;53784;52.630;4.896;2022-07-29T14:31:03;0.10;;;0.10;;
66874;SDS011;53784;52.630;4.896;2022-07-29T14:33:28;0.28;;;0.20;;
66874;SDS011;53784;52.630;4.896;2022-07-29T14:35:53;0.10;;;0.10;;
66874;SDS011;53784;52.630;4.896;2022-07-29T14:38:19;0.10;;;0.10;;
66874;SDS011;53784;52.630;4.896;2022-07-29T14:40:44;0.10;;;0.10;;
66874;SDS011;53784;52.630;4.896;2022-07-29T14:43:11;0.10;;;0.10;;
66874;SDS011;53784;52.630;4.896;2022-07-29T14:45:37;0.20;;;0.20;;
66874;SDS011;53784;52.630;4.896;2022-07-29T14:48:02;0.17;;;0.17;;
66874;SDS011;53784;52.630;4.896;2022-07-29T14:50:27;0.20;;;0.20;;
66874;SDS011;53784;52.630;4.896;2022-07-29T14:52:53;0.20;;;0.20;;
66874;SDS011;53784;52.630;4.896;2022-07-29T14:55:18;0.17;;;0.17;;
66874;SDS011;53784;52.630;4.896;2022-07-29T14:57:44;0.20;;;0.20;;
66874;SDS011;53784;52.630;4.896;2022-07-29T15:00:10;0.52;;;0.30;;
66874;SDS011;53784;52.630;4.896;2022-07-29T15:02:36;0.30;;;0.30;;
66874;SDS011;53784;52.630;4.896;2022-07-29T15:05:02;0.20;;;0.20;;
66874;SDS011;53784;52.630;4.896;2022-07-29T15:07:27;0.15;;;0.15;;
66874;SDS011;53784;52.630;4.896;2022-07-29T15:09:52;0.20;;;0.20;;
66874;SDS011;53784;52.630;4.896;2022-07-29T15:12:18;0.15;;;0.15;;
66874;SDS011;53784;52.630;4.896;2022-07-29T15:14:43;0.35;;;0.30;;
66874;SDS011;53784;52.630;4.896;2022-07-29T15:17:08;0.20;;;0.20;;
66874;SDS011;53784;52.630;4.896;2022-07-29T15:19:34;0.20;;;0.20;;
66874;SDS011;53784;52.630;4.896;2022-07-29T15:21:59;0.15;;;0.15;;
66874;SDS011;53784;52.630;4.896;2022-07-29T15:24:25;0.10;;;0.10;;
66874;SDS011;53784;52.630;4.896;2022-07-29T15:26:50;0.20;;;0.20;;
66874;SDS011;53784;52.630;4.896;2022-07-29T15:29:15;0.20;;;0.20;;
66874;SDS011;53784;52.630;4.896;2022-07-29T15:31:41;0.20;;;0.20;;
66874;SDS011;53784;52.630;4.896;2022-07-29T15:34:07;0.20;;;0.20;;
66874;SDS011;53784;52.630;4.896;2022-07-29T15:36:32;0.22;;;0.22;;
66874;SDS011;53784;52.630;4.896;2022-07-29T15:38:57;0.10;;;0.10;;
66874;SDS011;53784;52.630;4.896;2022-07-29T15:41:23;0.20;;;0.20;;